sensor_id;sensor_type;location;lat;lon;timestamp;P1;durP1;ratioP1;P2;durP2;ratioP2
46731;SDS011;32477;51.474;5.696;2023-10-31T00:00:17;20.52;;;13.40;;
46731;SDS011;32477;51.474;5.696;2023-10-31T00:02:43;25.73;;;13.77;;
46731;SDS011;32477;51.474;5.696;2023-10-31T00:05:08;27.15;;;14.40;;
46731;SDS011;32477;51.474;5.696;2023-10-31T00:07:34;26.40;;;14.18;;
46731;SDS011;32477;51.474;5.696;2023-10-31T00:10:00;27.08;;;14.00;;
46731;SDS011;32477;51.474;5.696;2023-10-31T00:12:26;23.52;;;14.50;;
46731;SDS011;32477;51.474;5.696;2023-10-31T00:14:51;24.58;;;13.95;;
46731;SDS011;32477;51.474;5.696;2023-10-31T00:17:17;26.55;;;13.05;;
46731;SDS011;32477;51.474;5.696;2023-10-31T00:19:42;31.17;;;14.38;;
46731;SDS011;32477;51.474;5.696;2023-10-31T00:22:09;31.85;;;13.57;;
46731;SDS011;32477;51.474;5.696;2023-10-31T00:24:35;25.38;;;12.98;;
46731;SDS011;32477;51.474;5.696;2023-10-31T00:27:00;26.30;;;12.82;;
46731;SDS011;32477;51.474;5.696;2023-10-31T00:29:26;21.40;;;12.35;;
46731;SDS011;32477;51.474;5.696;2023-10-31T00:31:52;22.70;;;13.38;;
46731;SDS011;32477;51.474;5.696;2023-10-31T00:34:17;20.60;;;12.23;;
46731;SDS011;32477;51.474;5.696;2023-10-31T00:36:43;18.08;;;11.05;;
46731;SDS011;32477;51.474;5.696;2023-10-31T00:39:09;20.05;;;10.20;;
46731;SDS011;32477;51.474;5.696;2023-10-31T00:41:34;21.85;;;10.48;;
46731;SDS011;32477;51.474;5.696;2023-10-31T00:44:00;27.50;;;9.45;;
46731;SDS011;32477;51.474;5.696;2023-10-31T00:46:26;17.05;;;7.88;;
46731;SDS011;32477;51.474;5.696;2023-10-31T00:48:51;17.17;;;8.52;;
46731;SDS011;32477;51.474;5.696;2023-10-31T00:51:17;21.27;;;8.57;;
46731;SDS011;32477;51.474;5.696;2023-10-31T00:53:43;16.20;;;8.13;;
46731;SDS011;32477;51.474;5.696;2023-10-31T00:56:08;17.83;;;7.90;;
46731;SDS011;32477;51.474;5.696;2023-10-31T00:58:34;24.33;;;7.63;;
46731;SDS011;32477;51.474;5.696;2023-10-31T01:01:00;15.93;;;7.22;;
46731;SDS011;32477;51.474;5.696;2023-10-31T01:03:25;18.90;;;6.65;;
46731;SDS011;32477;51.474;5.696;2023-10-31T01:05:51;12.18;;;6.45;;
46731;SDS011;32477;51.474;5.696;2023-10-31T01:08:17;13.82;;;5.57;;
46731;SDS011;32477;51.474;5.696;2023-10-31T01:10:42;18.08;;;6.90;;
46731;SDS011;32477;51.474;5.696;2023-10-31T01:13:08;17.15;;;6.60;;
46731;SDS011;32477;51.474;5.696;2023-10-31T01:15:33;14.05;;;7.10;;
46731;SDS011;32477;51.474;5.696;2023-10-31T01:17:59;15.45;;;7.22;;
46731;SDS011;32477;51.474;5.696;2023-10-31T01:20:25;18.05;;;7.60;;
46731;SDS011;32477;51.474;5.696;2023-10-31T01:22:50;19.80;;;8.13;;
46731;SDS011;32477;51.474;5.696;2023-10-31T01:25:16;20.73;;;8.65;;
46731;SDS011;32477;51.474;5.696;2023-10-31T01:27:42;21.27;;;9.98;;
46731;SDS011;32477;51.474;5.696;2023-10-31T01:30:08;28.65;;;11.38;;
46731;SDS011;32477;51.474;5.696;2023-10-31T01:32:35;25.13;;;11.50;;
46731;SDS011;32477;51.474;5.696;2023-10-31T01:35:00;27.42;;;10.65;;
46731;SDS011;32477;51.474;5.696;2023-10-31T01:37:26;25.13;;;11.95;;
46731;SDS011;32477;51.474;5.696;2023-10-31T01:39:52;24.98;;;12.93;;
46731;SDS011;32477;51.474;5.696;2023-10-31T01:42:18;23.92;;;12.98;;
46731;SDS011;32477;51.474;5.696;2023-10-31T01:44:44;33.00;;;14.00;;
46731;SDS011;32477;51.474;5.696;2023-10-31T01:47:09;33.17;;;15.10;;
46731;SDS011;32477;51.474;5.696;2023-10-31T01:49:38;35.65;;;15.05;;
46731;SDS011;32477;51.474;5.696;2023-10-31T01:52:05;32.42;;;14.48;;
46731;SDS011;32477;51.474;5.696;2023-10-31T01:54:34;36.47;;;16.08;;
46731;SDS011;32477;51.474;5.696;2023-10-31T01:57:01;32.85;;;15.13;;
46731;SDS011;32477;51.474;5.696;2023-10-31T01:59:29;33.72;;;17.33;;
46731;SDS011;32477;51.474;5.696;2023-10-31T02:01:56;33.72;;;16.83;;
46731;SDS011;32477;51.474;5.696;2023-10-31T02:04:23;36.92;;;17.35;;
46731;SDS011;32477;51.474;5.696;2023-10-31T02:06:49;35.05;;;16.65;;
46731;SDS011;32477;51.474;5.696;2023-10-31T02:09:15;37.05;;;16.58;;
46731;SDS011;32477;51.474;5.696;2023-10-31T02:11:41;39.17;;;18.20;;
46731;SDS011;32477;51.474;5.696;2023-10-31T02:14:07;36.67;;;18.17;;
46731;SDS011;32477;51.474;5.696;2023-10-31T02:16:32;39.28;;;18.20;;
46731;SDS011;32477;51.474;5.696;2023-10-31T02:18:58;45.33;;;19.08;;
46731;SDS011;32477;51.474;5.696;2023-10-31T02:21:23;38.28;;;17.20;;
46731;SDS011;32477;51.474;5.696;2023-10-31T02:23:57;37.10;;;16.52;;
46731;SDS011;32477;51.474;5.696;2023-10-31T02:26:28;43.67;;;18.52;;
46731;SDS011;32477;51.474;5.696;2023-10-31T02:28:58;41.95;;;17.27;;
46731;SDS011;32477;51.474;5.696;2023-10-31T02:31:25;37.67;;;17.90;;
46731;SDS011;32477;51.474;5.696;2023-10-31T02:33:51;38.78;;;18.40;;
46731;SDS011;32477;51.474;5.696;2023-10-31T02:36:17;47.17;;;19.25;;
46731;SDS011;32477;51.474;5.696;2023-10-31T02:38:43;45.40;;;19.35;;
46731;SDS011;32477;51.474;5.696;2023-10-31T02:41:09;40.53;;;17.90;;
46731;SDS011;32477;51.474;5.696;2023-10-31T02:43:35;38.97;;;19.42;;
46731;SDS011;32477;51.474;5.696;2023-10-31T02:46:01;37.45;;;17.20;;
46731;SDS011;32477;51.474;5.696;2023-10-31T02:48:26;41.42;;;18.50;;
46731;SDS011;32477;51.474;5.696;2023-10-31T02:50:52;37.95;;;17.90;;
46731;SDS011;32477;51.474;5.696;2023-10-31T02:53:18;36.75;;;18.75;;
46731;SDS011;32477;51.474;5.696;2023-10-31T02:55:44;36.22;;;18.35;;
46731;SDS011;32477;51.474;5.696;2023-10-31T02:58:10;35.25;;;17.63;;
46731;SDS011;32477;51.474;5.696;2023-10-31T03:00:36;39.63;;;18.15;;
46731;SDS011;32477;51.474;5.696;2023-10-31T03:03:02;34.30;;;17.80;;
46731;SDS011;32477;51.474;5.696;2023-10-31T03:05:27;45.85;;;19.73;;
46731;SDS011;32477;51.474;5.696;2023-10-31T03:07:53;37.53;;;18.95;;
46731;SDS011;32477;51.474;5.696;2023-10-31T03:10:19;42.75;;;18.45;;
46731;SDS011;32477;51.474;5.696;2023-10-31T03:12:45;39.05;;;17.90;;
46731;SDS011;32477;51.474;5.696;2023-10-31T03:15:11;35.50;;;17.95;;
46731;SDS011;32477;51.474;5.696;2023-10-31T03:17:37;40.35;;;19.20;;
46731;SDS011;32477;51.474;5.696;2023-10-31T03:20:02;37.70;;;17.00;;
46731;SDS011;32477;51.474;5.696;2023-10-31T03:22:28;34.40;;;16.98;;
46731;SDS011;32477;51.474;5.696;2023-10-31T03:24:54;39.38;;;17.88;;
46731;SDS011;32477;51.474;5.696;2023-10-31T03:27:20;40.13;;;18.40;;
46731;SDS011;32477;51.474;5.696;2023-10-31T03:29:46;36.15;;;17.75;;
46731;SDS011;32477;51.474;5.696;2023-10-31T03:32:11;33.58;;;17.10;;
46731;SDS011;32477;51.474;5.696;2023-10-31T03:34:37;34.83;;;18.05;;
46731;SDS011;32477;51.474;5.696;2023-10-31T03:37:03;39.10;;;17.42;;
46731;SDS011;32477;51.474;5.696;2023-10-31T03:39:30;43.25;;;20.05;;
46731;SDS011;32477;51.474;5.696;2023-10-31T03:41:55;36.33;;;18.45;;
46731;SDS011;32477;51.474;5.696;2023-10-31T03:44:21;43.33;;;18.58;;
46731;SDS011;32477;51.474;5.696;2023-10-31T03:46:46;33.88;;;17.48;;
46731;SDS011;32477;51.474;5.696;2023-10-31T03:49:12;41.78;;;19.02;;
46731;SDS011;32477;51.474;5.696;2023-10-31T03:51:38;38.25;;;18.45;;
46731;SDS011;32477;51.474;5.696;2023-10-31T03:54:03;35.67;;;19.35;;
46731;SDS011;32477;51.474;5.696;2023-10-31T03:56:29;39.45;;;19.73;;
46731;SDS011;32477;51.474;5.696;2023-10-31T03:58:55;36.80;;;18.52;;
46731;SDS011;32477;51.474;5.696;2023-10-31T04:01:20;36.47;;;18.90;;
46731;SDS011;32477;51.474;5.696;2023-10-31T04:03:46;41.47;;;19.00;;
46731;SDS011;32477;51.474;5.696;2023-10-31T04:06:12;37.55;;;19.23;;
46731;SDS011;32477;51.474;5.696;2023-10-31T04:08:37;38.33;;;19.83;;
46731;SDS011;32477;51.474;5.696;2023-10-31T04:11:03;39.75;;;19.70;;
46731;SDS011;32477;51.474;5.696;2023-10-31T04:13:29;36.30;;;19.80;;
46731;SDS011;32477;51.474;5.696;2023-10-31T04:15:54;40.30;;;19.88;;
46731;SDS011;32477;51.474;5.696;2023-10-31T04:18:20;41.30;;;19.98;;
46731;SDS011;32477;51.474;5.696;2023-10-31T04:20:46;42.60;;;18.88;;
46731;SDS011;32477;51.474;5.696;2023-10-31T04:23:11;40.15;;;18.60;;
46731;SDS011;32477;51.474;5.696;2023-10-31T04:25:37;34.50;;;18.23;;
46731;SDS011;32477;51.474;5.696;2023-10-31T04:28:03;38.95;;;18.85;;
46731;SDS011;32477;51.474;5.696;2023-10-31T04:30:29;36.88;;;18.52;;
46731;SDS011;32477;51.474;5.696;2023-10-31T04:32:55;39.25;;;19.83;;
46731;SDS011;32477;51.474;5.696;2023-10-31T04:35:20;35.63;;;18.77;;
46731;SDS011;32477;51.474;5.696;2023-10-31T04:37:46;37.03;;;17.77;;
46731;SDS011;32477;51.474;5.696;2023-10-31T04:40:12;39.03;;;18.70;;
46731;SDS011;32477;51.474;5.696;2023-10-31T04:42:38;34.00;;;17.08;;
46731;SDS011;32477;51.474;5.696;2023-10-31T04:45:05;31.23;;;17.38;;
46731;SDS011;32477;51.474;5.696;2023-10-31T04:47:32;31.83;;;17.88;;
46731;SDS011;32477;51.474;5.696;2023-10-31T04:49:57;27.55;;;15.98;;
46731;SDS011;32477;51.474;5.696;2023-10-31T04:52:23;27.88;;;15.43;;
46731;SDS011;32477;51.474;5.696;2023-10-31T04:54:51;27.65;;;15.30;;
46731;SDS011;32477;51.474;5.696;2023-10-31T04:57:16;27.05;;;14.55;;
46731;SDS011;32477;51.474;5.696;2023-10-31T04:59:42;29.55;;;15.75;;
46731;SDS011;32477;51.474;5.696;2023-10-31T05:02:08;28.13;;;15.05;;
46731;SDS011;32477;51.474;5.696;2023-10-31T05:04:33;29.63;;;15.63;;
46731;SDS011;32477;51.474;5.696;2023-10-31T05:07:02;23.88;;;15.02;;
46731;SDS011;32477;51.474;5.696;2023-10-31T05:09:28;31.45;;;14.93;;
46731;SDS011;32477;51.474;5.696;2023-10-31T05:11:54;29.95;;;16.17;;
46731;SDS011;32477;51.474;5.696;2023-10-31T05:14:20;31.52;;;16.20;;
46731;SDS011;32477;51.474;5.696;2023-10-31T05:16:45;30.73;;;17.73;;
46731;SDS011;32477;51.474;5.696;2023-10-31T05:19:11;32.22;;;15.15;;
46731;SDS011;32477;51.474;5.696;2023-10-31T05:21:37;23.77;;;13.48;;
46731;SDS011;32477;51.474;5.696;2023-10-31T05:24:03;21.98;;;13.05;;
46731;SDS011;32477;51.474;5.696;2023-10-31T05:26:29;20.05;;;9.98;;
46731;SDS011;32477;51.474;5.696;2023-10-31T05:28:55;23.88;;;10.90;;
46731;SDS011;32477;51.474;5.696;2023-10-31T05:31:25;19.58;;;10.30;;
46731;SDS011;32477;51.474;5.696;2023-10-31T05:33:51;25.13;;;13.52;;
46731;SDS011;32477;51.474;5.696;2023-10-31T05:36:24;22.73;;;13.32;;
46731;SDS011;32477;51.474;5.696;2023-10-31T05:38:50;30.83;;;16.05;;
46731;SDS011;32477;51.474;5.696;2023-10-31T05:41:16;31.55;;;16.58;;
46731;SDS011;32477;51.474;5.696;2023-10-31T05:43:42;33.17;;;17.13;;
46731;SDS011;32477;51.474;5.696;2023-10-31T05:46:08;34.58;;;18.27;;
46731;SDS011;32477;51.474;5.696;2023-10-31T05:48:37;34.42;;;18.08;;
46731;SDS011;32477;51.474;5.696;2023-10-31T05:51:04;31.98;;;17.77;;
46731;SDS011;32477;51.474;5.696;2023-10-31T05:53:30;36.25;;;20.05;;
46731;SDS011;32477;51.474;5.696;2023-10-31T05:55:57;33.70;;;19.13;;
46731;SDS011;32477;51.474;5.696;2023-10-31T05:58:23;37.63;;;18.88;;
46731;SDS011;32477;51.474;5.696;2023-10-31T06:00:48;34.95;;;18.77;;
46731;SDS011;32477;51.474;5.696;2023-10-31T06:03:14;35.60;;;20.33;;
46731;SDS011;32477;51.474;5.696;2023-10-31T06:05:41;32.35;;;19.10;;
46731;SDS011;32477;51.474;5.696;2023-10-31T06:08:08;32.33;;;17.50;;
46731;SDS011;32477;51.474;5.696;2023-10-31T06:10:34;34.80;;;18.23;;
46731;SDS011;32477;51.474;5.696;2023-10-31T06:13:00;35.28;;;17.33;;
46731;SDS011;32477;51.474;5.696;2023-10-31T06:15:25;30.52;;;16.63;;
46731;SDS011;32477;51.474;5.696;2023-10-31T06:17:51;33.47;;;18.02;;
46731;SDS011;32477;51.474;5.696;2023-10-31T06:20:16;37.17;;;18.13;;
46731;SDS011;32477;51.474;5.696;2023-10-31T06:22:42;32.95;;;17.10;;
46731;SDS011;32477;51.474;5.696;2023-10-31T06:25:08;32.10;;;17.20;;
46731;SDS011;32477;51.474;5.696;2023-10-31T06:27:33;32.75;;;16.75;;
46731;SDS011;32477;51.474;5.696;2023-10-31T06:29:59;31.55;;;16.35;;
46731;SDS011;32477;51.474;5.696;2023-10-31T06:32:25;32.88;;;17.98;;
46731;SDS011;32477;51.474;5.696;2023-10-31T06:34:50;29.02;;;16.08;;
46731;SDS011;32477;51.474;5.696;2023-10-31T06:37:16;31.50;;;15.43;;
46731;SDS011;32477;51.474;5.696;2023-10-31T06:39:42;28.23;;;15.68;;
46731;SDS011;32477;51.474;5.696;2023-10-31T06:42:07;32.00;;;16.92;;
46731;SDS011;32477;51.474;5.696;2023-10-31T06:44:33;35.22;;;16.63;;
46731;SDS011;32477;51.474;5.696;2023-10-31T06:46:59;35.47;;;16.48;;
46731;SDS011;32477;51.474;5.696;2023-10-31T06:49:24;30.92;;;16.75;;
46731;SDS011;32477;51.474;5.696;2023-10-31T06:51:50;32.28;;;16.25;;
46731;SDS011;32477;51.474;5.696;2023-10-31T06:54:16;34.38;;;16.70;;
46731;SDS011;32477;51.474;5.696;2023-10-31T06:56:41;30.38;;;16.48;;
46731;SDS011;32477;51.474;5.696;2023-10-31T06:59:07;33.97;;;17.98;;
46731;SDS011;32477;51.474;5.696;2023-10-31T07:01:34;35.55;;;19.02;;
46731;SDS011;32477;51.474;5.696;2023-10-31T07:03:59;34.92;;;18.90;;
46731;SDS011;32477;51.474;5.696;2023-10-31T07:06:26;39.65;;;19.20;;
46731;SDS011;32477;51.474;5.696;2023-10-31T07:08:51;39.15;;;19.77;;
46731;SDS011;32477;51.474;5.696;2023-10-31T07:11:17;32.78;;;18.60;;
46731;SDS011;32477;51.474;5.696;2023-10-31T07:13:43;36.08;;;19.25;;
46731;SDS011;32477;51.474;5.696;2023-10-31T07:16:09;34.97;;;20.05;;
46731;SDS011;32477;51.474;5.696;2023-10-31T07:18:35;38.70;;;20.38;;
46731;SDS011;32477;51.474;5.696;2023-10-31T07:21:00;31.45;;;17.77;;
46731;SDS011;32477;51.474;5.696;2023-10-31T07:23:26;28.60;;;16.48;;
46731;SDS011;32477;51.474;5.696;2023-10-31T07:25:52;30.90;;;17.02;;
46731;SDS011;32477;51.474;5.696;2023-10-31T07:28:17;26.42;;;16.40;;
46731;SDS011;32477;51.474;5.696;2023-10-31T07:30:43;28.70;;;16.55;;
46731;SDS011;32477;51.474;5.696;2023-10-31T07:33:09;25.30;;;15.90;;
46731;SDS011;32477;51.474;5.696;2023-10-31T07:35:35;24.13;;;13.75;;
46731;SDS011;32477;51.474;5.696;2023-10-31T07:38:00;23.13;;;14.40;;
46731;SDS011;32477;51.474;5.696;2023-10-31T07:40:26;22.48;;;14.15;;
46731;SDS011;32477;51.474;5.696;2023-10-31T07:42:51;24.23;;;13.68;;
46731;SDS011;32477;51.474;5.696;2023-10-31T07:45:17;21.77;;;13.30;;
46731;SDS011;32477;51.474;5.696;2023-10-31T07:47:43;20.88;;;12.60;;
46731;SDS011;32477;51.474;5.696;2023-10-31T07:50:08;19.38;;;11.70;;
46731;SDS011;32477;51.474;5.696;2023-10-31T07:52:34;21.45;;;14.27;;
46731;SDS011;32477;51.474;5.696;2023-10-31T07:55:00;21.55;;;12.77;;
46731;SDS011;32477;51.474;5.696;2023-10-31T07:57:26;17.85;;;11.63;;
46731;SDS011;32477;51.474;5.696;2023-10-31T07:59:51;20.15;;;11.40;;
46731;SDS011;32477;51.474;5.696;2023-10-31T08:02:17;27.00;;;13.02;;
46731;SDS011;32477;51.474;5.696;2023-10-31T08:04:42;23.10;;;12.38;;
46731;SDS011;32477;51.474;5.696;2023-10-31T08:07:08;17.17;;;11.02;;
46731;SDS011;32477;51.474;5.696;2023-10-31T08:09:34;22.23;;;12.38;;
46731;SDS011;32477;51.474;5.696;2023-10-31T08:11:59;25.25;;;13.10;;
46731;SDS011;32477;51.474;5.696;2023-10-31T08:14:25;22.73;;;12.60;;
46731;SDS011;32477;51.474;5.696;2023-10-31T08:16:51;20.90;;;12.70;;
46731;SDS011;32477;51.474;5.696;2023-10-31T08:19:16;20.80;;;13.50;;
46731;SDS011;32477;51.474;5.696;2023-10-31T08:21:42;24.35;;;14.07;;
46731;SDS011;32477;51.474;5.696;2023-10-31T08:24:08;30.08;;;13.98;;
46731;SDS011;32477;51.474;5.696;2023-10-31T08:26:33;20.58;;;13.13;;
46731;SDS011;32477;51.474;5.696;2023-10-31T08:28:59;20.73;;;14.27;;
46731;SDS011;32477;51.474;5.696;2023-10-31T08:31:25;22.30;;;13.00;;
46731;SDS011;32477;51.474;5.696;2023-10-31T08:33:51;29.88;;;15.10;;
46731;SDS011;32477;51.474;5.696;2023-10-31T08:36:16;28.27;;;14.50;;
46731;SDS011;32477;51.474;5.696;2023-10-31T08:38:42;26.50;;;14.35;;
46731;SDS011;32477;51.474;5.696;2023-10-31T08:41:08;24.52;;;15.18;;
46731;SDS011;32477;51.474;5.696;2023-10-31T08:43:33;23.92;;;14.38;;
46731;SDS011;32477;51.474;5.696;2023-10-31T08:45:59;25.08;;;13.65;;
46731;SDS011;32477;51.474;5.696;2023-10-31T08:48:25;28.08;;;14.30;;
46731;SDS011;32477;51.474;5.696;2023-10-31T08:50:51;27.38;;;14.10;;
46731;SDS011;32477;51.474;5.696;2023-10-31T08:53:17;22.90;;;13.27;;
46731;SDS011;32477;51.474;5.696;2023-10-31T08:55:44;26.10;;;14.27;;
46731;SDS011;32477;51.474;5.696;2023-10-31T08:58:12;20.48;;;12.27;;
46731;SDS011;32477;51.474;5.696;2023-10-31T09:00:38;24.77;;;12.27;;
46731;SDS011;32477;51.474;5.696;2023-10-31T09:03:05;20.38;;;11.90;;
46731;SDS011;32477;51.474;5.696;2023-10-31T09:05:31;17.63;;;11.13;;
46731;SDS011;32477;51.474;5.696;2023-10-31T09:07:57;19.77;;;10.82;;
46731;SDS011;32477;51.474;5.696;2023-10-31T09:10:23;24.35;;;10.52;;
46731;SDS011;32477;51.474;5.696;2023-10-31T09:12:48;21.90;;;10.63;;
46731;SDS011;32477;51.474;5.696;2023-10-31T09:15:14;21.15;;;9.90;;
46731;SDS011;32477;51.474;5.696;2023-10-31T09:17:39;18.90;;;9.95;;
46731;SDS011;32477;51.474;5.696;2023-10-31T09:20:05;15.65;;;9.40;;
46731;SDS011;32477;51.474;5.696;2023-10-31T09:22:33;16.65;;;9.35;;
46731;SDS011;32477;51.474;5.696;2023-10-31T09:24:58;17.52;;;10.18;;
46731;SDS011;32477;51.474;5.696;2023-10-31T09:27:24;15.82;;;8.82;;
46731;SDS011;32477;51.474;5.696;2023-10-31T09:29:50;15.27;;;8.77;;
46731;SDS011;32477;51.474;5.696;2023-10-31T09:32:16;20.05;;;9.55;;
46731;SDS011;32477;51.474;5.696;2023-10-31T09:34:43;32.35;;;8.75;;
46731;SDS011;32477;51.474;5.696;2023-10-31T09:37:09;15.40;;;8.25;;
46731;SDS011;32477;51.474;5.696;2023-10-31T09:39:34;19.80;;;9.07;;
46731;SDS011;32477;51.474;5.696;2023-10-31T09:42:00;17.40;;;8.63;;
46731;SDS011;32477;51.474;5.696;2023-10-31T09:44:26;13.15;;;8.65;;
46731;SDS011;32477;51.474;5.696;2023-10-31T09:46:52;16.48;;;8.75;;
46731;SDS011;32477;51.474;5.696;2023-10-31T09:49:18;14.52;;;7.97;;
46731;SDS011;32477;51.474;5.696;2023-10-31T09:51:44;16.35;;;9.27;;
46731;SDS011;32477;51.474;5.696;2023-10-31T09:54:12;14.57;;;8.40;;
46731;SDS011;32477;51.474;5.696;2023-10-31T09:56:40;12.90;;;7.30;;
46731;SDS011;32477;51.474;5.696;2023-10-31T09:59:06;15.55;;;7.47;;
46731;SDS011;32477;51.474;5.696;2023-10-31T10:01:32;13.10;;;7.60;;
46731;SDS011;32477;51.474;5.696;2023-10-31T10:03:58;13.75;;;8.40;;
46731;SDS011;32477;51.474;5.696;2023-10-31T10:06:25;13.57;;;8.00;;
46731;SDS011;32477;51.474;5.696;2023-10-31T10:08:51;16.20;;;8.68;;
46731;SDS011;32477;51.474;5.696;2023-10-31T10:11:17;14.75;;;7.95;;
46731;SDS011;32477;51.474;5.696;2023-10-31T10:13:43;14.40;;;8.40;;
46731;SDS011;32477;51.474;5.696;2023-10-31T10:16:09;11.52;;;7.60;;
46731;SDS011;32477;51.474;5.696;2023-10-31T10:18:35;24.00;;;8.60;;
46731;SDS011;32477;51.474;5.696;2023-10-31T10:21:05;13.73;;;7.25;;
46731;SDS011;32477;51.474;5.696;2023-10-31T10:23:32;13.43;;;7.68;;
46731;SDS011;32477;51.474;5.696;2023-10-31T10:25:58;17.15;;;8.43;;
46731;SDS011;32477;51.474;5.696;2023-10-31T10:28:25;18.15;;;8.60;;
46731;SDS011;32477;51.474;5.696;2023-10-31T10:30:51;14.32;;;8.45;;
46731;SDS011;32477;51.474;5.696;2023-10-31T10:33:21;13.80;;;7.53;;
46731;SDS011;32477;51.474;5.696;2023-10-31T10:35:47;15.23;;;8.60;;
46731;SDS011;32477;51.474;5.696;2023-10-31T10:38:17;24.60;;;7.80;;
46731;SDS011;32477;51.474;5.696;2023-10-31T10:40:44;17.30;;;7.72;;
46731;SDS011;32477;51.474;5.696;2023-10-31T10:43:33;14.63;;;8.10;;
46731;SDS011;32477;51.474;5.696;2023-10-31T10:46:02;16.35;;;9.15;;
46731;SDS011;32477;51.474;5.696;2023-10-31T10:48:30;11.75;;;7.65;;
46731;SDS011;32477;51.474;5.696;2023-10-31T10:51:10;15.68;;;8.77;;
46731;SDS011;32477;51.474;5.696;2023-10-31T10:53:49;21.60;;;8.73;;
46731;SDS011;32477;51.474;5.696;2023-10-31T10:56:30;15.57;;;8.50;;
46731;SDS011;32477;51.474;5.696;2023-10-31T10:59:03;13.60;;;7.68;;
46731;SDS011;32477;51.474;5.696;2023-10-31T11:01:43;14.07;;;8.05;;
46731;SDS011;32477;51.474;5.696;2023-10-31T11:04:12;18.83;;;8.23;;
46731;SDS011;32477;51.474;5.696;2023-10-31T11:06:38;20.75;;;8.38;;
46731;SDS011;32477;51.474;5.696;2023-10-31T11:09:05;15.38;;;7.50;;
46731;SDS011;32477;51.474;5.696;2023-10-31T11:11:32;12.90;;;7.93;;
46731;SDS011;32477;51.474;5.696;2023-10-31T11:13:58;15.13;;;7.50;;
46731;SDS011;32477;51.474;5.696;2023-10-31T11:16:29;12.15;;;7.75;;
46731;SDS011;32477;51.474;5.696;2023-10-31T11:19:00;16.30;;;7.75;;
46731;SDS011;32477;51.474;5.696;2023-10-31T11:21:30;12.32;;;7.32;;
46731;SDS011;32477;51.474;5.696;2023-10-31T11:23:56;14.40;;;8.05;;
46731;SDS011;32477;51.474;5.696;2023-10-31T11:26:25;13.65;;;7.82;;
46731;SDS011;32477;51.474;5.696;2023-10-31T11:28:51;13.00;;;7.32;;
46731;SDS011;32477;51.474;5.696;2023-10-31T11:31:17;16.88;;;7.80;;
46731;SDS011;32477;51.474;5.696;2023-10-31T11:33:42;15.57;;;6.95;;
46731;SDS011;32477;51.474;5.696;2023-10-31T11:36:11;15.15;;;6.70;;
46731;SDS011;32477;51.474;5.696;2023-10-31T11:38:37;11.98;;;7.38;;
46731;SDS011;32477;51.474;5.696;2023-10-31T11:41:03;11.70;;;6.85;;
46731;SDS011;32477;51.474;5.696;2023-10-31T11:46:05;15.18;;;5.90;;
46731;SDS011;32477;51.474;5.696;2023-10-31T11:48:47;9.27;;;5.80;;
46731;SDS011;32477;51.474;5.696;2023-10-31T11:51:16;13.13;;;6.13;;
46731;SDS011;32477;51.474;5.696;2023-10-31T11:53:41;10.15;;;5.82;;
46731;SDS011;32477;51.474;5.696;2023-10-31T11:56:09;8.70;;;5.50;;
46731;SDS011;32477;51.474;5.696;2023-10-31T11:58:36;10.55;;;5.70;;
46731;SDS011;32477;51.474;5.696;2023-10-31T12:01:03;8.85;;;5.88;;
46731;SDS011;32477;51.474;5.696;2023-10-31T12:03:36;8.80;;;4.93;;
46731;SDS011;32477;51.474;5.696;2023-10-31T12:06:06;12.45;;;6.55;;
46731;SDS011;32477;51.474;5.696;2023-10-31T12:08:43;11.30;;;5.75;;
46731;SDS011;32477;51.474;5.696;2023-10-31T12:11:12;14.05;;;5.28;;
46731;SDS011;32477;51.474;5.696;2023-10-31T12:14:03;7.65;;;4.97;;
46731;SDS011;32477;51.474;5.696;2023-10-31T12:16:33;11.82;;;4.82;;
46731;SDS011;32477;51.474;5.696;2023-10-31T12:19:03;10.23;;;4.65;;
46731;SDS011;32477;51.474;5.696;2023-10-31T12:21:36;7.30;;;3.92;;
46731;SDS011;32477;51.474;5.696;2023-10-31T12:24:08;6.47;;;3.15;;
46731;SDS011;32477;51.474;5.696;2023-10-31T12:26:35;6.82;;;2.58;;
46731;SDS011;32477;51.474;5.696;2023-10-31T12:29:17;6.32;;;2.58;;
46731;SDS011;32477;51.474;5.696;2023-10-31T12:31:47;4.00;;;2.60;;
46731;SDS011;32477;51.474;5.696;2023-10-31T12:34:15;3.53;;;2.47;;
46731;SDS011;32477;51.474;5.696;2023-10-31T12:36:42;4.85;;;1.95;;
46731;SDS011;32477;51.474;5.696;2023-10-31T12:39:10;4.85;;;2.03;;
46731;SDS011;32477;51.474;5.696;2023-10-31T12:41:37;3.55;;;1.85;;
46731;SDS011;32477;51.474;5.696;2023-10-31T12:44:06;4.78;;;1.20;;
46731;SDS011;32477;51.474;5.696;2023-10-31T12:46:38;5.18;;;3.35;;
46731;SDS011;32477;51.474;5.696;2023-10-31T12:49:10;4.72;;;1.63;;
46731;SDS011;32477;51.474;5.696;2023-10-31T12:51:54;2.65;;;1.30;;
46731;SDS011;32477;51.474;5.696;2023-10-31T12:54:27;3.47;;;1.50;;
46731;SDS011;32477;51.474;5.696;2023-10-31T12:56:59;2.78;;;1.48;;
46731;SDS011;32477;51.474;5.696;2023-10-31T12:59:26;3.80;;;1.50;;
46731;SDS011;32477;51.474;5.696;2023-10-31T13:01:51;5.97;;;1.60;;
46731;SDS011;32477;51.474;5.696;2023-10-31T13:04:24;2.33;;;1.33;;
46731;SDS011;32477;51.474;5.696;2023-10-31T13:07:00;6.45;;;1.75;;
46731;SDS011;32477;51.474;5.696;2023-10-31T13:09:30;4.32;;;1.58;;
46731;SDS011;32477;51.474;5.696;2023-10-31T13:12:00;4.82;;;1.92;;
46731;SDS011;32477;51.474;5.696;2023-10-31T13:14:27;8.35;;;1.45;;
46731;SDS011;32477;51.474;5.696;2023-10-31T13:16:52;3.67;;;1.65;;
46731;SDS011;32477;51.474;5.696;2023-10-31T13:19:18;5.93;;;1.80;;
46731;SDS011;32477;51.474;5.696;2023-10-31T13:21:44;5.03;;;1.85;;
46731;SDS011;32477;51.474;5.696;2023-10-31T13:24:10;2.90;;;1.60;;
46731;SDS011;32477;51.474;5.696;2023-10-31T13:26:35;8.73;;;2.38;;
46731;SDS011;32477;51.474;5.696;2023-10-31T13:29:01;5.53;;;1.80;;
46731;SDS011;32477;51.474;5.696;2023-10-31T13:31:26;7.20;;;3.15;;
46731;SDS011;32477;51.474;5.696;2023-10-31T13:33:52;8.77;;;2.58;;
46731;SDS011;32477;51.474;5.696;2023-10-31T13:36:18;2.25;;;1.17;;
46731;SDS011;32477;51.474;5.696;2023-10-31T13:38:43;3.40;;;1.73;;
46731;SDS011;32477;51.474;5.696;2023-10-31T13:41:09;8.00;;;1.83;;
46731;SDS011;32477;51.474;5.696;2023-10-31T13:43:35;2.80;;;1.48;;
46731;SDS011;32477;51.474;5.696;2023-10-31T13:46:02;7.82;;;1.70;;
46731;SDS011;32477;51.474;5.696;2023-10-31T13:48:28;3.95;;;1.60;;
46731;SDS011;32477;51.474;5.696;2023-10-31T13:50:53;2.90;;;1.33;;
46731;SDS011;32477;51.474;5.696;2023-10-31T13:53:19;3.95;;;1.40;;
46731;SDS011;32477;51.474;5.696;2023-10-31T13:55:45;5.28;;;1.13;;
46731;SDS011;32477;51.474;5.696;2023-10-31T13:58:11;3.75;;;1.48;;
46731;SDS011;32477;51.474;5.696;2023-10-31T14:00:37;5.03;;;1.50;;
46731;SDS011;32477;51.474;5.696;2023-10-31T14:03:02;2.90;;;1.20;;
46731;SDS011;32477;51.474;5.696;2023-10-31T14:05:28;6.03;;;1.33;;
46731;SDS011;32477;51.474;5.696;2023-10-31T14:07:53;6.95;;;1.40;;
46731;SDS011;32477;51.474;5.696;2023-10-31T14:10:19;7.30;;;1.67;;
46731;SDS011;32477;51.474;5.696;2023-10-31T14:12:46;10.73;;;3.28;;
46731;SDS011;32477;51.474;5.696;2023-10-31T14:15:12;2.92;;;1.77;;
46731;SDS011;32477;51.474;5.696;2023-10-31T14:17:37;7.07;;;2.25;;
46731;SDS011;32477;51.474;5.696;2023-10-31T14:20:03;5.55;;;1.60;;
46731;SDS011;32477;51.474;5.696;2023-10-31T14:22:29;5.68;;;1.75;;
46731;SDS011;32477;51.474;5.696;2023-10-31T14:24:55;3.17;;;1.88;;
46731;SDS011;32477;51.474;5.696;2023-10-31T14:27:21;4.07;;;1.70;;